Time;durP1;ratioP1;P1;durP2;ratioP2;P2;SDS_P1;SDS_P2;PMS_P1;PMS_P2;Temp;Humidity;BMP_temperature;BMP_pressure;BME280_temperature;BME280_humidity;BME280_pressure;Samples;Min_cycle;Max_cycle;Signal;HPM_P1;HPM_P2
2023/06/06 00:00:19;;;;;;;10.52;8.32;;;14.50;99.90;;;;;;5136512;27;20176;-61
2023/06/06 00:02:49;;;;;;;14.48;8.95;;;14.50;99.90;;;;;;5136679;27;20179;-61
2023/06/06 00:05:15;;;;;;;13.48;8.70;;;14.60;99.90;;;;;;5136388;27;20253;-61
2023/06/06 00:07:43;;;;;;;10.77;8.05;;;14.50;99.90;;;;;;5136561;27;20173;-61
2023/06/06 00:10:14;;;;;;;12.38;8.82;;;14.50;99.90;;;;;;5136341;27;20207;-62
2023/06/06 00:12:41;;;;;;;13.85;9.60;;;14.40;99.90;;;;;;5136355;27;20229;-61
2023/06/06 00:15:08;;;;;;;12.15;9.10;;;14.30;99.90;;;;;;5135603;27;20271;-61
2023/06/06 00:17:36;;;;;;;10.10;7.93;;;14.40;99.90;;;;;;5136330;27;20206;-61
2023/06/06 00:20:08;;;;;;;12.95;8.50;;;14.40;99.90;;;;;;5136080;27;20180;-61
2023/06/06 00:22:36;;;;;;;12.15;8.75;;;14.30;99.90;;;;;;5136206;27;20629;-61
2023/06/06 00:25:03;;;;;;;9.65;8.15;;;14.30;99.90;;;;;;5136049;27;20176;-62
2023/06/06 00:27:30;;;;;;;10.88;8.68;;;14.20;99.90;;;;;;5135997;27;20169;-61
2023/06/06 00:29:55;;;;;;;10.98;8.50;;;14.10;99.90;;;;;;5135829;27;20269;-61
2023/06/06 00:32:21;;;;;;;11.45;8.70;;;14.00;99.90;;;;;;5135858;27;20576;-61
2023/06/06 00:34:47;;;;;;;12.23;9.10;;;14.10;99.90;;;;;;5117586;27;20172;-61
2023/06/06 00:37:12;;;;;;;12.63;9.27;;;14.00;99.90;;;;;;5135764;27;20251;-61
2023/06/06 00:39:38;;;;;;;13.25;9.45;;;13.90;99.90;;;;;;5135865;27;20196;-61
2023/06/06 00:42:04;;;;;;;11.88;8.52;;;13.90;99.90;;;;;;5135606;27;20203;-62
2023/06/06 00:44:30;;;;;;;12.32;9.07;;;13.90;99.90;;;;;;5135804;27;20196;-61
2023/06/06 00:46:56;;;;;;;10.27;8.52;;;13.90;99.90;;;;;;5135753;27;20571;-61
2023/06/06 00:49:23;;;;;;;9.73;8.02;;;13.90;99.90;;;;;;5135293;27;20231;-62
2023/06/06 00:51:49;;;;;;;11.45;8.68;;;13.80;99.90;;;;;;5135563;27;20260;-62
2023/06/06 00:54:17;;;;;;;11.18;8.65;;;13.80;99.90;;;;;;5135451;27;20664;-62
2023/06/06 00:56:47;;;;;;;11.93;8.70;;;13.80;99.90;;;;;;5135292;27;20165;-62
2023/06/06 00:59:14;;;;;;;13.45;9.20;;;13.80;99.90;;;;;;5135968;27;20609;-64
2023/06/06 01:01:41;;;;;;;12.20;8.98;;;13.70;99.90;;;;;;5135422;27;20216;-62
2023/06/06 01:04:08;;;;;;;10.30;8.80;;;13.70;99.90;;;;;;5135361;27;20164;-62
2023/06/06 01:06:37;;;;;;;14.32;9.30;;;13.60;99.90;;;;;;5135640;27;20204;-62
2023/06/06 01:09:11;;;;;;;11.57;9.15;;;13.50;99.90;;;;;;5135057;27;20633;-61
2023/06/06 01:11:59;;;;;;;12.02;9.10;;;13.50;99.90;;;;;;5116711;27;20211;-61
2023/06/06 01:14:43;;;;;;;12.57;9.43;;;13.50;99.90;;;;;;5135260;27;20229;-61
2023/06/06 01:17:11;;;;;;;10.00;8.38;;;13.50;99.90;;;;;;5135080;27;20176;-61
2023/06/06 01:19:38;;;;;;;11.85;8.82;;;13.50;99.90;;;;;;5134854;27;20173;-62
2023/06/06 01:22:04;;;;;;;12.13;9.15;;;13.50;99.90;;;;;;5135134;27;20200;-62
2023/06/06 01:24:30;;;;;;;13.15;9.18;;;13.50;99.90;;;;;;5134874;27;20180;-61
2023/06/06 01:26:56;;;;;;;11.13;8.70;;;13.50;99.90;;;;;;5131978;27;20169;-61
2023/06/06 01:29:22;;;;;;;13.50;10.10;;;13.50;99.90;;;;;;5133727;27;20196;-62
2023/06/06 01:32:27;;;;;;;11.80;9.57;;;13.40;99.90;;;;;;5134818;27;20637;-61
2023/06/06 01:35:06;;;;;;;11.77;9.75;;;13.40;99.90;;;;;;5134917;27;20169;-61
2023/06/06 01:37:48;;;;;;;11.48;9.77;;;13.50;99.90;;;;;;5134709;27;20164;-61
2023/06/06 01:40:18;;;;;;;14.15;10.25;;;13.50;99.90;;;;;;5134669;27;20180;-61
2023/06/06 01:42:47;;;;;;;13.77;9.77;;;13.40;99.90;;;;;;5134592;27;20216;-61
2023/06/06 01:45:16;;;;;;;15.65;10.10;;;13.40;99.90;;;;;;5134529;27;20160;-61
2023/06/06 01:47:43;;;;;;;14.95;9.43;;;13.30;99.90;;;;;;5134531;27;20329;-61
2023/06/06 01:50:10;;;;;;;14.18;10.20;;;13.30;99.90;;;;;;5134472;27;20264;-61
2023/06/06 01:52:39;;;;;;;13.15;9.32;;;13.30;99.90;;;;;;5134508;27;20259;-62
2023/06/06 01:55:07;;;;;;;11.65;9.32;;;13.40;99.90;;;;;;5134241;27;20207;-61
2023/06/06 01:57:33;;;;;;;13.55;9.60;;;13.40;99.90;;;;;;5134569;27;20253;-61
2023/06/06 01:59:59;;;;;;;12.25;9.25;;;13.30;99.90;;;;;;5134314;27;20521;-61
2023/06/06 02:02:26;;;;;;;12.50;10.05;;;13.20;99.90;;;;;;5134394;27;20176;-61
2023/06/06 02:04:51;;;;;;;12.23;9.93;;;13.30;99.90;;;;;;5134400;27;20189;-61
2023/06/06 02:07:17;;;;;;;11.77;9.57;;;13.30;99.90;;;;;;5134289;27;20204;-61
2023/06/06 02:09:43;;;;;;;11.15;9.50;;;13.30;99.90;;;;;;5134144;27;20618;-61
2023/06/06 02:12:09;;;;;;;14.05;9.35;;;13.30;99.90;;;;;;5134501;28;20188;-61
2023/06/06 02:14:35;;;;;;;14.68;9.70;;;13.30;99.90;;;;;;5134399;28;20719;-61
2023/06/06 02:17:01;;;;;;;12.90;9.07;;;13.20;99.90;;;;;;5134209;28;20248;-61
2023/06/06 02:19:27;;;;;;;11.88;9.32;;;13.30;99.90;;;;;;5134322;28;20171;-61
2023/06/06 02:21:53;;;;;;;11.80;9.50;;;13.30;99.90;;;;;;5134187;28;20173;-61
2023/06/06 02:24:18;;;;;;;12.63;9.52;;;13.20;99.90;;;;;;5134049;28;20172;-61
2023/06/06 02:26:45;;;;;;;9.40;8.40;;;13.20;99.90;;;;;;5134047;28;20172;-61
2023/06/06 02:29:10;;;;;;;12.07;9.35;;;13.10;99.90;;;;;;5134447;28;20204;-61
2023/06/06 02:31:36;;;;;;;9.80;8.80;;;13.10;99.90;;;;;;5134081;28;20257;-61
2023/06/06 02:34:02;;;;;;;12.73;9.57;;;13.20;99.90;;;;;;5134152;28;20180;-61
2023/06/06 02:36:29;;;;;;;13.45;9.57;;;13.20;99.90;;;;;;5134020;28;20256;-61
2023/06/06 02:38:56;;;;;;;10.02;8.88;;;13.10;99.90;;;;;;5135507;27;20651;-61
2023/06/06 02:41:22;;;;;;;13.65;9.60;;;13.10;99.90;;;;;;5138245;27;20169;-61
2023/06/06 02:43:48;;;;;;;13.02;9.60;;;13.10;99.90;;;;;;5138200;27;20233;-61
2023/06/06 02:46:14;;;;;;;12.55;9.68;;;13.10;99.90;;;;;;5138126;27;20222;-61
2023/06/06 02:48:40;;;;;;;15.23;9.98;;;13.20;99.90;;;;;;5137804;27;20232;-61
2023/06/06 02:51:06;;;;;;;11.50;9.65;;;13.30;99.90;;;;;;5137785;27;20258;-61
2023/06/06 02:53:32;;;;;;;11.27;8.75;;;13.30;99.90;;;;;;5137808;27;20192;-61
2023/06/06 02:55:58;;;;;;;11.00;9.15;;;13.20;99.90;;;;;;5137942;27;20629;-61
2023/06/06 02:58:30;;;;;;;12.50;9.65;;;13.10;99.90;;;;;;5138042;27;20633;-61
2023/06/06 03:00:57;;;;;;;11.98;9.68;;;13.00;99.90;;;;;;5137704;27;20229;-61
2023/06/06 03:03:23;;;;;;;13.15;9.40;;;13.10;99.90;;;;;;5137698;27;20176;-61
2023/06/06 03:05:51;;;;;;;11.18;9.40;;;13.10;99.90;;;;;;5137557;27;20177;-61
2023/06/06 03:08:18;;;;;;;10.73;9.45;;;13.10;99.90;;;;;;5137760;27;20533;-61
2023/06/06 03:10:48;;;;;;;13.07;9.65;;;13.20;99.90;;;;;;5137397;27;20550;-62
2023/06/06 03:13:14;;;;;;;12.85;9.77;;;13.10;99.90;;;;;;5137567;27;20177;-61
2023/06/06 03:15:44;;;;;;;13.82;9.45;;;13.10;99.90;;;;;;5137490;27;20657;-61
2023/06/06 03:18:16;;;;;;;11.40;9.63;;;13.10;99.90;;;;;;5137393;27;20629;-61
2023/06/06 03:20:45;;;;;;;13.18;8.95;;;13.10;99.90;;;;;;5137279;27;20177;-61
2023/06/06 03:23:11;;;;;;;11.55;9.18;;;13.00;99.90;;;;;;5137425;27;20251;-61
2023/06/06 03:25:43;;;;;;;10.65;9.38;;;13.10;99.90;;;;;;5137437;27;20177;-61
2023/06/06 03:28:12;;;;;;;12.77;9.13;;;13.20;99.90;;;;;;5137670;27;20173;-61
2023/06/06 03:30:38;;;;;;;13.50;9.07;;;13.10;99.90;;;;;;5137174;27;20201;-61
2023/06/06 03:33:07;;;;;;;11.25;9.15;;;13.00;99.90;;;;;;5137129;27;20184;-61
2023/06/06 03:35:34;;;;;;;12.68;8.40;;;13.00;99.90;;;;;;5137232;27;20230;-61
2023/06/06 03:38:01;;;;;;;11.90;9.60;;;13.00;99.90;;;;;;5137119;27;20518;-61
2023/06/06 03:40:27;;;;;;;14.63;8.80;;;13.00;99.90;;;;;;5136995;27;20602;-61
2023/06/06 03:42:52;;;;;;;13.13;9.15;;;13.00;99.90;;;;;;5136909;27;20260;-61
2023/06/06 03:45:19;;;;;;;11.27;8.68;;;13.00;99.90;;;;;;5136917;27;20216;-61
2023/06/06 03:47:45;;;;;;;11.00;8.80;;;12.90;99.90;;;;;;5136610;27;20622;-61
2023/06/06 03:50:11;;;;;;;14.52;9.15;;;13.00;99.90;;;;;;5135788;27;20200;-61
2023/06/06 03:52:38;;;;;;;9.55;8.55;;;13.00;99.90;;;;;;5136790;27;20184;-61
2023/06/06 03:55:04;;;;;;;10.27;8.48;;;12.80;99.90;;;;;;5136822;27;20176;-61
2023/06/06 03:57:30;;;;;;;11.23;8.93;;;12.80;99.90;;;;;;5136740;27;20165;-61
2023/06/06 04:00:00;;;;;;;11.23;9.05;;;12.90;99.90;;;;;;5136547;27;20181;-60
2023/06/06 04:02:27;;;;;;;12.18;8.45;;;12.90;99.90;;;;;;5136421;27;20177;-61
2023/06/06 04:04:54;;;;;;;9.55;7.97;;;12.90;99.90;;;;;;5136621;27;20184;-60
2023/06/06 04:07:20;;;;;;;10.68;8.50;;;12.80;99.90;;;;;;5136497;27;20173;-61
2023/06/06 04:09:45;;;;;;;11.70;9.00;;;12.70;99.90;;;;;;5136461;27;20203;-61
2023/06/06 04:12:11;;;;;;;12.63;8.35;;;12.80;99.90;;;;;;5136543;27;20176;-61
2023/06/06 04:14:37;;;;;;;11.93;8.35;;;12.90;99.90;;;;;;5136319;27;20579;-61
2023/06/06 04:17:03;;;;;;;10.55;8.32;;;12.80;99.90;;;;;;5136137;27;20173;-61
2023/06/06 04:19:30;;;;;;;12.77;8.95;;;12.90;99.90;;;;;;5136404;27;20191;-61
2023/06/06 04:21:56;;;;;;;11.43;8.57;;;13.00;99.90;;;;;;5136038;27;20664;-61
2023/06/06 04:24:21;;;;;;;10.18;8.80;;;13.00;99.90;;;;;;5136252;27;20165;-61
2023/06/06 04:26:48;;;;;;;9.77;8.25;;;13.00;99.90;;;;;;5136036;27;20196;-61
2023/06/06 04:29:13;;;;;;;10.48;8.48;;;13.10;99.90;;;;;;5136004;27;20573;-61
2023/06/06 04:31:40;;;;;;;12.15;8.95;;;13.10;99.90;;;;;;5135841;27;20201;-61
2023/06/06 04:34:09;;;;;;;11.00;8.35;;;13.10;99.90;;;;;;5136096;27;20189;-61
2023/06/06 04:36:38;;;;;;;12.55;8.75;;;13.10;99.90;;;;;;5136068;27;20248;-61
2023/06/06 04:39:05;;;;;;;12.18;8.45;;;13.00;99.90;;;;;;5135936;27;20177;-61
2023/06/06 04:41:31;;;;;;;11.00;9.02;;;13.10;99.90;;;;;;5135817;27;20244;-61
2023/06/06 04:43:59;;;;;;;11.00;8.85;;;13.20;99.90;;;;;;5135712;27;20169;-62
2023/06/06 04:46:24;;;;;;;12.77;9.30;;;13.30;99.90;;;;;;5135818;27;20204;-64
2023/06/06 04:48:54;;;;;;;11.60;8.75;;;13.30;99.90;;;;;;5135601;27;20229;-62
2023/06/06 04:51:30;;;;;;;10.07;9.07;;;13.30;99.90;;;;;;5135499;27;20635;-62
2023/06/06 04:54:01;;;;;;;10.93;8.90;;;13.20;99.90;;;;;;5135517;27;20545;-62
2023/06/06 04:56:30;;;;;;;9.60;8.20;;;13.20;99.90;;;;;;5135436;27;20552;-63
2023/06/06 04:58:56;;;;;;;10.75;8.40;;;13.10;99.90;;;;;;5135598;27;20181;-62
2023/06/06 05:01:26;;;;;;;12.02;9.15;;;13.20;99.90;;;;;;5135389;27;20169;-62
2023/06/06 05:03:52;;;;;;;11.73;9.15;;;13.30;99.90;;;;;;5135486;27;20227;-60
2023/06/06 05:06:17;;;;;;;14.18;8.95;;;13.40;99.90;;;;;;5135379;27;20204;-61
2023/06/06 05:08:46;;;;;;;10.43;9.32;;;13.40;99.90;;;;;;5135261;27;20200;-61
2023/06/06 05:11:11;;;;;;;9.18;8.20;;;13.40;99.90;;;;;;5135039;27;20185;-61
2023/06/06 05:13:37;;;;;;;12.93;8.85;;;13.50;99.90;;;;;;5135358;27;20179;-61
2023/06/06 05:16:03;;;;;;;10.10;8.23;;;13.50;99.90;;;;;;5135215;27;20176;-61
2023/06/06 05:18:31;;;;;;;11.98;9.02;;;13.50;99.90;;;;;;5135164;27;20645;-61
2023/06/06 05:21:02;;;;;;;14.38;8.82;;;13.60;99.90;;;;;;5135238;27;20641;-61
2023/06/06 05:23:31;;;;;;;15.07;10.05;;;13.70;99.90;;;;;;5134979;27;20187;-61
2023/06/06 05:25:57;;;;;;;10.40;8.63;;;13.70;99.90;;;;;;5135079;27;20172;-61
2023/06/06 05:28:28;;;;;;;11.65;9.05;;;13.80;99.90;;;;;;5135059;27;20180;-61
2023/06/06 05:30:56;;;;;;;11.60;8.50;;;13.80;99.90;;;;;;5135112;27;20204;-61
2023/06/06 05:33:25;;;;;;;12.00;8.80;;;13.90;99.90;;;;;;5134984;27;20230;-61
2023/06/06 05:35:52;;;;;;;10.90;8.85;;;14.00;99.90;;;;;;5134865;27;20237;-61
2023/06/06 05:38:19;;;;;;;12.90;9.55;;;14.00;99.90;;;;;;5134641;27;20521;-61
2023/06/06 05:40:45;;;;;;;11.00;8.45;;;14.00;99.90;;;;;;5134745;27;20177;-61
2023/06/06 05:43:14;;;;;;;11.77;8.52;;;14.00;99.90;;;;;;5134740;27;20179;-61
2023/06/06 05:45:40;;;;;;;12.98;8.40;;;14.10;99.90;;;;;;5134784;27;20463;-61
2023/06/06 05:48:06;;;;;;;12.35;8.93;;;14.30;99.90;;;;;;5134876;27;20248;-60
2023/06/06 05:50:31;;;;;;;10.85;8.25;;;14.30;99.90;;;;;;5134543;27;20696;-60
2023/06/06 05:52:57;;;;;;;12.15;8.70;;;14.40;99.90;;;;;;5134477;27;20184;-61
2023/06/06 05:55:31;;;;;;;12.15;8.98;;;14.20;99.90;;;;;;5135061;27;20169;-60
2023/06/06 05:57:58;;;;;;;19.95;9.30;;;14.40;99.90;;;;;;5134521;27;20224;-60
2023/06/06 06:00:25;;;;;;;13.18;8.68;;;14.40;99.90;;;;;;5134331;27;20660;-61
2023/06/06 06:02:52;;;;;;;11.93;8.88;;;14.40;99.90;;;;;;5134421;27;20180;-60
2023/06/06 06:05:19;;;;;;;13.43;8.82;;;14.40;99.90;;;;;;5134301;27;20544;-61
2023/06/06 06:07:45;;;;;;;10.80;9.00;;;14.60;99.90;;;;;;5134452;27;20621;-60
2023/06/06 06:10:11;;;;;;;13.27;8.55;;;14.80;99.90;;;;;;5134232;27;20200;-60
2023/06/06 06:12:36;;;;;;;12.25;9.35;;;14.80;99.90;;;;;;5134241;27;20575;-61
2023/06/06 06:15:03;;;;;;;12.80;9.25;;;14.80;99.90;;;;;;5134166;28;20342;-60
2023/06/06 06:17:28;;;;;;;12.20;9.00;;;14.90;99.90;;;;;;5134192;28;20207;-60
2023/06/06 06:19:54;;;;;;;14.55;9.15;;;14.60;99.90;;;;;;5134157;28;20180;-61
2023/06/06 06:22:19;;;;;;;13.50;9.52;;;14.80;99.90;;;;;;5134268;28;20191;-60
2023/06/06 06:24:45;;;;;;;11.60;8.18;;;14.80;99.90;;;;;;5134303;28;20172;-61
2023/06/06 06:27:11;;;;;;;12.23;8.82;;;15.00;99.90;;;;;;5134300;28;20260;-61
2023/06/06 06:29:36;;;;;;;11.90;8.95;;;15.10;99.90;;;;;;5134138;28;20173;-61
2023/06/06 06:32:02;;;;;;;10.73;8.95;;;15.20;99.90;;;;;;5133969;28;20185;-61
2023/06/06 06:34:28;;;;;;;11.30;8.75;;;15.30;99.90;;;;;;5133880;28;20550;-61
2023/06/06 06:36:54;;;;;;;10.20;8.65;;;15.30;99.90;;;;;;5134214;28;20184;-61
2023/06/06 06:39:23;;;;;;;12.93;8.93;;;15.20;99.90;;;;;;5134659;28;20208;-61
2023/06/06 06:41:50;;;;;;;10.80;8.95;;;15.30;99.90;;;;;;5134055;28;20169;-60
2023/06/06 06:44:19;;;;;;;11.77;9.40;;;15.30;99.90;;;;;;5133929;28;20254;-61
2023/06/06 06:46:45;;;;;;;12.38;8.88;;;15.30;99.90;;;;;;5133867;28;20173;-61
2023/06/06 06:49:18;;;;;;;11.50;9.05;;;15.30;99.90;;;;;;5134165;28;20224;-60
2023/06/06 06:51:44;;;;;;;12.73;9.10;;;15.30;99.90;;;;;;5134048;28;20439;-61
2023/06/06 06:54:13;;;;;;;14.43;8.73;;;15.30;99.90;;;;;;5133883;28;20176;-61
2023/06/06 06:56:41;;;;;;;15.27;9.30;;;15.50;99.90;;;;;;5133919;28;20173;-61
2023/06/06 06:59:07;;;;;;;12.52;9.05;;;15.50;99.90;;;;;;5115368;28;20165;-61
2023/06/06 07:01:34;;;;;;;12.43;8.55;;;15.70;99.90;;;;;;5133736;28;20172;-61
2023/06/06 07:04:00;;;;;;;11.25;8.55;;;15.70;99.90;;;;;;5133867;28;20184;-60
2023/06/06 07:06:27;;;;;;;11.77;8.18;;;15.80;99.90;;;;;;5133763;28;20177;-61
2023/06/06 07:08:53;;;;;;;11.80;9.70;;;15.80;99.90;;;;;;5133659;28;20675;-61
2023/06/06 07:11:19;;;;;;;12.07;8.38;;;16.00;99.90;;;;;;5133645;28;20236;-61
2023/06/06 07:13:44;;;;;;;11.77;8.15;;;16.10;99.90;;;;;;5133887;28;20175;-60
2023/06/06 07:16:12;;;;;;;12.20;8.98;;;16.20;99.90;;;;;;5133467;28;20168;-61
2023/06/06 07:18:37;;;;;;;11.65;9.02;;;16.30;99.90;;;;;;5133450;28;20629;-60
2023/06/06 07:21:03;;;;;;;10.73;8.40;;;16.40;99.90;;;;;;5133676;28;20233;-60
2023/06/06 07:23:31;;;;;;;11.10;8.40;;;16.40;99.90;;;;;;5133117;28;20176;-61
2023/06/06 07:25:57;;;;;;;9.45;8.45;;;16.60;99.90;;;;;;5134183;27;20177;-60
2023/06/06 07:28:24;;;;;;;9.65;8.25;;;16.70;99.90;;;;;;5136407;27;20176;-60
2023/06/06 07:30:50;;;;;;;11.50;8.20;;;16.90;99.90;;;;;;5136265;27;20235;-61
2023/06/06 07:33:16;;;;;;;11.80;8.27;;;17.00;99.90;;;;;;5136479;27;20181;-61
2023/06/06 07:35:42;;;;;;;11.80;8.07;;;17.10;99.90;;;;;;5136337;27;20595;-60
2023/06/06 07:38:08;;;;;;;11.15;7.72;;;17.30;99.90;;;;;;5136231;27;20186;-61
2023/06/06 07:40:34;;;;;;;9.65;8.18;;;17.60;99.90;;;;;;5136280;27;20204;-61
2023/06/06 07:42:59;;;;;;;10.38;8.20;;;17.70;99.90;;;;;;5136190;27;20200;-60
2023/06/06 07:45:25;;;;;;;11.90;8.02;;;17.80;99.90;;;;;;5135931;27;20173;-61
2023/06/06 07:47:51;;;;;;;11.82;8.30;;;17.80;99.90;;;;;;5136214;27;20325;-61
2023/06/06 07:50:17;;;;;;;11.48;7.97;;;17.60;99.90;;;;;;5136048;27;20197;-60
2023/06/06 07:52:44;;;;;;;10.32;7.70;;;17.50;99.90;;;;;;5135796;27;20177;-61
2023/06/06 07:55:11;;;;;;;11.05;7.95;;;17.70;99.90;;;;;;5135856;27;20180;-60
2023/06/06 07:57:40;;;;;;;10.27;7.70;;;17.70;99.90;;;;;;5135692;27;20192;-61
2023/06/06 08:00:12;;;;;;;11.93;7.80;;;17.80;99.90;;;;;;5135651;27;20200;-61
2023/06/06 08:02:41;;;;;;;12.43;8.05;;;17.70;99.90;;;;;;5135957;27;20172;-61
2023/06/06 08:05:08;;;;;;;12.38;8.27;;;17.80;99.90;;;;;;5135672;27;20209;-60
2023/06/06 08:07:36;;;;;;;10.15;8.27;;;18.10;99.90;;;;;;5135686;27;20235;-61
2023/06/06 08:10:03;;;;;;;12.07;8.40;;;18.10;99.90;;;;;;5135638;27;20196;-61
2023/06/06 08:12:28;;;;;;;12.00;7.93;;;18.00;99.90;;;;;;5135428;27;20192;-61
2023/06/06 08:14:54;;;;;;;11.18;7.90;;;18.20;99.90;;;;;;5135660;27;20551;-61
2023/06/06 08:17:20;;;;;;;9.93;8.43;;;18.20;99.90;;;;;;5135633;27;20172;-61
2023/06/06 08:19:45;;;;;;;10.65;8.60;;;18.20;99.90;;;;;;5135429;27;20223;-60
2023/06/06 08:22:11;;;;;;;11.20;8.45;;;18.40;99.90;;;;;;5135363;27;20176;-60
2023/06/06 08:24:37;;;;;;;10.77;8.30;;;18.60;99.90;;;;;;5135305;27;20173;-61
2023/06/06 08:27:03;;;;;;;12.07;8.10;;;18.40;99.90;;;;;;5135059;27;20180;-61
2023/06/06 08:29:29;;;;;;;10.68;8.05;;;18.60;99.90;;;;;;5135311;27;20253;-61
2023/06/06 08:31:54;;;;;;;11.55;7.30;;;18.80;99.90;;;;;;5135217;27;20707;-61
2023/06/06 08:34:21;;;;;;;11.27;8.70;;;18.80;99.90;;;;;;5135095;27;20188;-60
2023/06/06 08:36:47;;;;;;;9.20;7.50;;;18.60;99.90;;;;;;5134633;27;20664;-60
2023/06/06 08:39:13;;;;;;;11.35;7.85;;;18.80;99.90;;;;;;5134909;27;20183;-61
2023/06/06 08:41:48;;;;;;;11.30;8.07;;;19.00;99.90;;;;;;5134846;27;20169;-61
2023/06/06 08:44:14;;;;;;;10.57;7.50;;;19.10;99.90;;;;;;5135223;27;20228;-61
2023/06/06 08:46:41;;;;;;;10.85;7.30;;;19.00;99.90;;;;;;5134774;27;20530;-61
2023/06/06 08:49:08;;;;;;;9.70;7.18;;;19.20;99.90;;;;;;5134734;27;20534;-61
2023/06/06 08:51:34;;;;;;;13.77;7.18;;;19.40;99.90;;;;;;5134618;27;20239;-61
2023/06/06 08:54:01;;;;;;;11.20;7.35;;;19.50;99.90;;;;;;5134683;27;20249;-61
2023/06/06 08:56:27;;;;;;;12.18;7.88;;;19.60;99.90;;;;;;5134488;27;20172;-61
2023/06/06 08:58:53;;;;;;;12.55;7.72;;;19.80;99.90;;;;;;5134978;27;20172;-61
2023/06/06 09:01:20;;;;;;;8.48;6.93;;;19.70;99.90;;;;;;5134617;27;20192;-61
2023/06/06 09:03:48;;;;;;;11.70;7.45;;;19.80;99.90;;;;;;5116317;27;20211;-61
2023/06/06 09:06:17;;;;;;;11.27;7.72;;;19.80;99.90;;;;;;5134444;27;20185;-61
2023/06/06 09:08:47;;;;;;;10.05;7.20;;;20.00;99.90;;;;;;5134333;27;20188;-61
2023/06/06 09:11:13;;;;;;;11.90;6.95;;;20.10;99.90;;;;;;5134335;27;20205;-61
2023/06/06 09:13:42;;;;;;;12.10;7.18;;;20.20;99.90;;;;;;5134149;27;20589;-61
2023/06/06 09:16:08;;;;;;;10.48;7.15;;;20.30;99.90;;;;;;5134400;27;20257;-61
2023/06/06 09:18:35;;;;;;;11.20;6.97;;;20.30;99.90;;;;;;5134258;27;20185;-61
2023/06/06 09:21:01;;;;;;;11.50;7.50;;;20.30;99.90;;;;;;5134141;27;20237;-61
2023/06/06 09:23:30;;;;;;;11.32;6.80;;;20.40;99.90;;;;;;5134227;27;20172;-61
2023/06/06 09:25:57;;;;;;;9.18;7.28;;;20.10;99.90;;;;;;5134158;27;20196;-61
2023/06/06 09:28:36;;;;;;;11.40;7.25;;;20.40;99.90;;;;;;5134123;27;20548;-61
2023/06/06 09:31:22;;;;;;;12.48;7.30;;;20.50;99.90;;;;;;5133880;27;20541;-61
2023/06/06 09:33:49;;;;;;;11.90;7.53;;;20.70;99.90;;;;;;5133794;27;20177;-61
2023/06/06 09:36:15;;;;;;;11.55;7.45;;;20.70;99.90;;;;;;5133942;27;20191;-61
2023/06/06 09:38:40;;;;;;;11.35;7.40;;;20.90;99.90;;;;;;5133977;27;20172;-61
2023/06/06 09:41:07;;;;;;;10.93;7.25;;;21.00;99.90;;;;;;5133813;27;20263;-60
2023/06/06 09:43:35;;;;;;;14.73;7.43;;;20.80;99.90;;;;;;5133848;27;20204;-61
2023/06/06 09:46:05;;;;;;;10.55;6.97;;;20.70;99.90;;;;;;5133657;27;20177;-61
2023/06/06 09:48:31;;;;;;;10.75;6.93;;;20.70;99.90;;;;;;5132567;27;20252;-61
2023/06/06 09:50:57;;;;;;;12.88;7.13;;;20.80;99.90;;;;;;5133461;27;20669;-61
2023/06/06 09:53:27;;;;;;;14.25;7.30;;;21.30;99.90;;;;;;5133798;27;20177;-61
2023/06/06 09:56:02;;;;;;;9.55;7.15;;;21.00;99.90;;;;;;5133747;27;20191;-61
2023/06/06 09:58:29;;;;;;;8.80;6.70;;;21.20;99.90;;;;;;5133596;27;20174;-61
2023/06/06 10:00:58;;;;;;;10.70;6.55;;;21.20;99.90;;;;;;5133410;27;20694;-61
2023/06/06 10:03:25;;;;;;;10.52;6.35;;;21.40;99.90;;;;;;5133768;27;20173;-61
2023/06/06 10:05:52;;;;;;;9.90;6.65;;;21.50;99.90;;;;;;5133523;27;20199;-61
2023/06/06 10:08:19;;;;;;;8.52;6.38;;;21.60;99.90;;;;;;5133574;27;20675;-61
2023/06/06 10:10:48;;;;;;;9.95;6.72;;;21.80;99.90;;;;;;5133357;27;20577;-61
2023/06/06 10:13:14;;;;;;;12.68;6.78;;;21.90;99.90;;;;;;5133215;28;20621;-61
2023/06/06 10:15:41;;;;;;;10.52;6.78;;;21.70;99.90;;;;;;5133135;28;20204;-62
2023/06/06 10:18:09;;;;;;;12.75;7.78;;;21.60;99.90;;;;;;5133473;28;20172;-61
2023/06/06 10:20:36;;;;;;;11.13;7.28;;;21.90;99.90;;;;;;5133329;28;20184;-61
2023/06/06 10:23:02;;;;;;;11.38;6.70;;;22.10;99.90;;;;;;5133237;28;20173;-61
2023/06/06 10:25:28;;;;;;;11.35;7.57;;;22.30;99.90;;;;;;5133308;28;20466;-61
2023/06/06 10:28:23;;;;;;;9.98;6.82;;;22.10;99.90;;;;;;5133207;28;20172;-61
2023/06/06 10:31:03;;;;;;;10.43;6.88;;;22.30;99.90;;;;;;5125961;28;20215;-62
2023/06/06 10:33:44;;;;;;;11.85;6.78;;;22.30;99.90;;;;;;5133267;28;20180;-62
2023/06/06 10:36:15;;;;;;;12.85;7.03;;;22.40;99.90;;;;;;5133145;28;20168;-61
2023/06/06 10:39:01;;;;;;;11.98;7.45;;;22.70;99.90;;;;;;5133153;28;20521;-61
2023/06/06 10:41:42;;;;;;;10.50;6.90;;;22.60;99.90;;;;;;5132983;28;20258;-61
2023/06/06 10:44:08;;;;;;;9.77;5.93;;;22.60;99.90;;;;;;5133195;28;20180;-61
2023/06/06 10:46:34;;;;;;;8.65;6.82;;;22.70;99.90;;;;;;5133099;28;20204;-61
2023/06/06 10:49:02;;;;;;;9.93;6.47;;;22.60;99.90;;;;;;5114605;28;20270;-61
2023/06/06 10:51:32;;;;;;;10.05;7.53;;;23.00;99.90;;;;;;5115056;28;20208;-61
2023/06/06 10:54:20;;;;;;;12.20;7.47;;;22.80;99.90;;;;;;5133171;28;20518;-61
2023/06/06 10:56:54;;;;;;;8.50;6.15;;;22.70;99.90;;;;;;5133080;28;20214;-61
2023/06/06 10:59:27;;;;;;;10.35;6.93;;;23.00;99.90;;;;;;5133333;27;20585;-61
2023/06/06 11:01:54;;;;;;;10.13;6.88;;;23.30;99.90;;;;;;5137003;27;20176;-61
2023/06/06 11:04:24;;;;;;;10.43;7.00;;;23.40;99.90;;;;;;5136940;27;20574;-62
2023/06/06 11:06:58;;;;;;;11.95;6.90;;;23.50;99.40;;;;;;5137025;27;20172;-61
2023/06/06 11:09:32;;;;;;;9.60;6.82;;;23.40;99.90;;;;;;5136866;27;20296;-62
2023/06/06 11:12:16;;;;;;;14.93;7.65;;;23.60;99.80;;;;;;5136607;27;20197;-61
2023/06/06 11:14:57;;;;;;;10.38;6.78;;;23.60;99.30;;;;;;5136839;27;20172;-61
2023/06/06 11:17:41;;;;;;;12.70;6.72;;;23.80;99.90;;;;;;5136532;27;20172;-61
2023/06/06 11:20:16;;;;;;;10.35;7.00;;;23.70;99.00;;;;;;5136572;27;20180;-62
2023/06/06 11:22:50;;;;;;;9.88;7.07;;;23.70;98.30;;;;;;5136995;27;20282;-61
2023/06/06 11:25:30;;;;;;;10.20;6.90;;;23.70;98.10;;;;;;5137452;27;20169;-62
2023/06/06 11:27:57;;;;;;;11.32;7.22;;;23.30;98.80;;;;;;5137313;27;20204;-62
2023/06/06 11:30:24;;;;;;;9.23;7.00;;;23.40;99.90;;;;;;5137046;27;20212;-62
2023/06/06 11:32:53;;;;;;;11.77;6.65;;;23.70;99.50;;;;;;5137050;27;20169;-62
2023/06/06 11:35:21;;;;;;;10.48;6.57;;;23.90;98.90;;;;;;5137279;27;20221;-62
2023/06/06 11:37:50;;;;;;;9.80;6.85;;;23.90;98.40;;;;;;5137102;27;20172;-62
2023/06/06 11:40:16;;;;;;;10.25;6.47;;;24.00;99.80;;;;;;5136982;27;20172;-62
2023/06/06 11:42:45;;;;;;;11.48;6.70;;;23.90;97.80;;;;;;5137045;27;20180;-62
2023/06/06 11:45:15;;;;;;;10.77;6.65;;;23.90;98.00;;;;;;5136846;27;20259;-61
2023/06/06 11:47:41;;;;;;;11.45;6.55;;;23.70;97.60;;;;;;5136773;27;20741;-61
2023/06/06 11:50:08;;;;;;;10.23;6.68;;;23.70;98.40;;;;;;5136923;27;20196;-61
2023/06/06 11:52:48;;;;;;;7.88;6.15;;;23.80;98.60;;;;;;5136812;27;20215;-62
2023/06/06 11:55:15;;;;;;;9.35;6.43;;;23.90;98.10;;;;;;5136822;27;20581;-62
2023/06/06 11:57:41;;;;;;;11.25;7.13;;;24.00;97.30;;;;;;5136594;27;20229;-61
2023/06/06 12:00:10;;;;;;;9.88;6.88;;;23.80;97.70;;;;;;5136856;27;20207;-61
2023/06/06 12:02:36;;;;;;;8.38;6.47;;;23.80;97.30;;;;;;5136688;27;20173;-62
2023/06/06 12:05:03;;;;;;;10.27;5.82;;;23.90;98.00;;;;;;5136494;27;20515;-61
2023/06/06 12:07:29;;;;;;;11.23;6.68;;;23.90;98.40;;;;;;5136544;27;20180;-62
2023/06/06 12:09:59;;;;;;;9.38;6.18;;;24.00;96.80;;;;;;5136364;27;20173;-61
2023/06/06 12:12:25;;;;;;;9.90;6.50;;;23.90;97.10;;;;;;5135449;27;20689;-61
2023/06/06 12:14:58;;;;;;;8.88;6.10;;;24.10;97.40;;;;;;5136550;27;20225;-61
2023/06/06 12:17:28;;;;;;;10.18;5.70;;;24.10;97.30;;;;;;5136410;27;20564;-61
2023/06/06 12:19:57;;;;;;;8.10;5.70;;;24.20;97.30;;;;;;5136378;27;20177;-61
2023/06/06 12:22:32;;;;;;;10.65;6.18;;;23.90;96.50;;;;;;5136261;27;20256;-62
2023/06/06 12:24:59;;;;;;;10.60;5.97;;;24.10;97.00;;;;;;5117663;27;20221;-61
2023/06/06 12:27:26;;;;;;;11.40;5.70;;;24.10;96.30;;;;;;5136309;27;20176;-62
2023/06/06 12:29:54;;;;;;;8.85;5.80;;;24.20;97.40;;;;;;5136026;27;20187;-61
2023/06/06 12:32:23;;;;;;;10.02;6.03;;;24.40;97.10;;;;;;5136029;27;20215;-62
2023/06/06 12:34:53;;;;;;;10.07;5.95;;;24.50;96.70;;;;;;5135997;27;20257;-61
2023/06/06 12:37:19;;;;;;;9.68;5.65;;;24.50;96.30;;;;;;5135790;27;20232;-62
2023/06/06 12:39:46;;;;;;;9.18;5.30;;;24.70;95.80;;;;;;5135968;27;20181;-62
2023/06/06 12:42:19;;;;;;;10.52;5.03;;;24.70;95.70;;;;;;5136089;27;20546;-61